createdAt,value
2023-02-27T00:01:29.309Z,91.18
2023-02-27T00:03:55.747Z,90.94
2023-02-27T00:06:22.096Z,91.70
2023-02-27T00:08:48.462Z,90.93
2023-02-27T00:11:14.813Z,90.93
2023-02-27T00:13:41.107Z,91.01
2023-02-27T00:16:07.515Z,91.03
2023-02-27T00:18:33.860Z,90.94
2023-02-27T00:21:00.180Z,91.68
2023-02-27T00:23:27.711Z,91.14
2023-02-27T00:25:54.949Z,91.61
2023-02-27T00:28:21.253Z,92.09
2023-02-27T00:30:47.578Z,93.05
2023-02-27T00:33:13.937Z,93.43
2023-02-27T00:35:40.254Z,94.05
2023-02-27T00:38:06.670Z,94.40
2023-02-27T00:40:35.846Z,95.23
2023-02-27T00:43:02.159Z,95.82
2023-02-27T00:45:28.552Z,95.75
2023-02-27T00:47:54.871Z,95.53
2023-02-27T00:50:21.173Z,96.04
2023-02-27T00:52:47.612Z,95.60
2023-02-27T00:55:13.941Z,96.29
2023-02-27T00:57:40.644Z,95.51
2023-02-27T01:00:07.005Z,95.52
2023-02-27T01:02:33.383Z,95.58
2023-02-27T01:04:59.824Z,96.67
2023-02-27T01:07:26.290Z,97.42
2023-02-27T01:09:52.670Z,97.13
2023-02-27T01:12:19.057Z,97.51
2023-02-27T01:14:45.395Z,99.52
2023-02-27T01:17:11.695Z,100.00
2023-02-27T01:19:38.010Z,99.42
2023-02-27T01:22:04.328Z,100.00
2023-02-27T01:24:30.652Z,100.00
2023-02-27T01:26:57.014Z,98.91
2023-02-27T01:29:23.322Z,99.48
2023-02-27T01:31:49.703Z,99.89
2023-02-27T01:34:16.143Z,99.09
2023-02-27T01:36:42.539Z,98.77
2023-02-27T01:39:08.858Z,99.32
2023-02-27T01:41:35.217Z,99.23
2023-02-27T01:44:01.531Z,99.51
2023-02-27T01:46:27.883Z,100.00
2023-02-27T01:48:55.744Z,100.00
2023-02-27T01:51:22.069Z,99.41
2023-02-27T01:53:48.387Z,99.50
2023-02-27T01:56:14.685Z,98.78
2023-02-27T01:58:41.026Z,99.29
2023-02-27T02:01:07.440Z,98.11
2023-02-27T02:03:33.774Z,98.04
2023-02-27T02:06:00.135Z,98.55
2023-02-27T02:08:26.552Z,98.93
2023-02-27T02:10:52.898Z,98.86
2023-02-27T02:13:19.241Z,98.37
2023-02-27T02:15:45.548Z,98.94
2023-02-27T02:18:11.899Z,99.11
2023-02-27T02:20:38.256Z,99.54
2023-02-27T02:23:04.600Z,100.00
2023-02-27T02:25:30.922Z,100.00
2023-02-27T02:27:57.272Z,100.00
2023-02-27T02:30:23.673Z,100.00
2023-02-27T02:32:49.979Z,100.00
2023-02-27T02:35:16.520Z,100.00
2023-02-27T02:37:42.845Z,100.00
2023-02-27T02:40:09.149Z,100.00
2023-02-27T02:42:35.456Z,100.00
2023-02-27T02:45:01.750Z,100.00
2023-02-27T02:47:28.051Z,100.00
2023-02-27T02:49:54.370Z,100.00
2023-02-27T02:52:20.696Z,100.00
2023-02-27T02:54:47.096Z,100.00
2023-02-27T02:57:13.401Z,100.00
2023-02-27T02:59:39.729Z,100.00
2023-02-27T03:02:06.056Z,100.00
2023-02-27T03:04:32.440Z,100.00
2023-02-27T03:06:58.867Z,100.00
2023-02-27T03:09:25.684Z,100.00
2023-02-27T03:11:52.006Z,100.00
2023-02-27T03:14:18.320Z,99.96
2023-02-27T03:16:44.618Z,99.35
2023-02-27T03:19:10.909Z,99.41
2023-02-27T03:21:37.221Z,99.97
2023-02-27T03:24:03.688Z,100.00
2023-02-27T03:26:30.020Z,99.52
2023-02-27T03:28:56.325Z,99.79
2023-02-27T03:31:22.706Z,99.85
2023-02-27T03:33:49.117Z,99.49
2023-02-27T03:36:15.452Z,99.51
2023-02-27T03:38:41.778Z,98.92
2023-02-27T03:41:08.094Z,98.53
2023-02-27T03:43:34.392Z,97.97
2023-02-27T03:46:00.797Z,97.44
2023-02-27T03:48:27.143Z,96.78
2023-02-27T03:50:53.490Z,96.55
2023-02-27T03:53:19.794Z,96.69
2023-02-27T03:55:46.102Z,96.44
2023-02-27T03:58:12.410Z,96.47
2023-02-27T04:00:38.743Z,97.26
2023-02-27T04:03:05.173Z,97.84
2023-02-27T04:05:31.502Z,97.24
2023-02-27T04:07:57.794Z,97.27
2023-02-27T04:10:24.114Z,96.85
2023-02-27T04:12:50.460Z,96.09
2023-02-27T04:15:16.771Z,96.54
2023-02-27T04:17:43.067Z,96.72
2023-02-27T04:20:10.620Z,96.00
2023-02-27T04:22:36.946Z,96.13
2023-02-27T04:25:03.266Z,96.04
2023-02-27T04:27:29.591Z,95.84
2023-02-27T04:29:55.894Z,95.48
2023-02-27T04:32:22.311Z,95.24
2023-02-27T04:34:48.682Z,95.82
2023-02-27T04:37:14.989Z,95.64
2023-02-27T04:39:41.301Z,95.32
2023-02-27T04:42:07.643Z,95.28
2023-02-27T04:44:33.983Z,95.94
2023-02-27T04:47:00.312Z,96.21
2023-02-27T04:49:26.610Z,96.63
2023-02-27T04:51:53.006Z,97.22
2023-02-27T04:54:19.311Z,97.02
2023-02-27T04:56:45.640Z,96.74
2023-02-27T04:59:12.013Z,96.68
2023-02-27T05:01:38.313Z,96.22
2023-02-27T05:04:04.645Z,96.48
2023-02-27T05:06:30.968Z,96.36
2023-02-27T05:08:57.702Z,96.53
2023-02-27T05:11:24.015Z,95.93
2023-02-27T05:13:50.359Z,95.94
2023-02-27T05:16:16.725Z,96.60
2023-02-27T05:18:43.126Z,96.65
2023-02-27T05:21:09.420Z,96.87
2023-02-27T05:23:35.799Z,95.85
2023-02-27T05:26:02.122Z,95.10
2023-02-27T05:28:28.448Z,95.19
2023-02-27T05:30:54.749Z,94.57
2023-02-27T05:33:21.070Z,94.26
2023-02-27T05:35:47.438Z,94.09
2023-02-27T05:38:13.770Z,93.73
2023-02-27T05:40:40.069Z,93.51
2023-02-27T05:43:06.368Z,93.44
2023-02-27T05:45:34.719Z,95.13
2023-02-27T05:48:01.079Z,95.42
2023-02-27T05:50:27.414Z,94.86
2023-02-27T05:52:53.745Z,94.77
2023-02-27T05:55:20.101Z,94.57
2023-02-27T05:57:46.406Z,94.88
2023-02-27T06:00:12.761Z,94.40
2023-02-27T06:02:39.093Z,94.53
2023-02-27T06:05:05.426Z,94.85
2023-02-27T06:07:31.863Z,95.13
2023-02-27T06:09:58.207Z,95.06
2023-02-27T06:12:24.522Z,94.36
2023-02-27T06:14:51.938Z,95.28
2023-02-27T06:17:18.314Z,95.51
2023-02-27T06:19:44.752Z,95.54
2023-02-27T06:22:11.177Z,94.86
2023-02-27T06:24:37.477Z,94.30
2023-02-27T06:27:03.799Z,93.11
2023-02-27T06:29:30.215Z,92.40
2023-02-27T06:31:56.591Z,92.44
2023-02-27T06:34:22.952Z,92.56
2023-02-27T06:36:49.305Z,91.63
2023-02-27T06:39:15.706Z,90.73
2023-02-27T06:41:42.062Z,89.04
2023-02-27T06:44:08.501Z,89.65
2023-02-27T06:46:34.845Z,89.03
2023-02-27T06:49:01.157Z,88.88
2023-02-27T06:51:27.555Z,86.29
2023-02-27T06:53:53.878Z,86.61
2023-02-27T06:56:20.208Z,86.69
2023-02-27T06:58:46.636Z,85.89
2023-02-27T07:01:13.644Z,86.64
2023-02-27T07:03:40.001Z,86.72
2023-02-27T07:06:06.328Z,88.56
2023-02-27T07:08:32.703Z,86.38
2023-02-27T07:10:59.540Z,86.34
2023-02-27T07:13:25.857Z,84.71
2023-02-27T07:15:52.499Z,85.00
2023-02-27T07:18:18.875Z,85.44
2023-02-27T07:20:45.217Z,85.41
2023-02-27T07:23:11.550Z,85.34
2023-02-27T07:25:37.891Z,86.24
2023-02-27T07:28:05.239Z,86.81
2023-02-27T07:30:31.681Z,85.08
2023-02-27T07:32:58.029Z,84.74
2023-02-27T07:35:24.698Z,85.33
2023-02-27T07:37:51.019Z,84.03
2023-02-27T07:40:17.339Z,83.07
2023-02-27T07:42:43.732Z,83.85
2023-02-27T07:45:10.176Z,83.60
2023-02-27T07:47:36.579Z,83.81
2023-02-27T07:50:04.753Z,83.13
2023-02-27T07:52:31.288Z,83.00
2023-02-27T07:54:57.637Z,82.20
2023-02-27T07:57:23.961Z,83.67
2023-02-27T07:59:50.286Z,83.04
2023-02-27T08:02:16.616Z,85.51
2023-02-27T08:04:43.134Z,84.19
2023-02-27T08:07:09.542Z,84.24
2023-02-27T08:09:36.634Z,83.67
2023-02-27T08:12:03.190Z,84.56
2023-02-27T08:14:29.525Z,82.26
2023-02-27T08:16:55.835Z,80.95
2023-02-27T08:19:22.168Z,80.57
2023-02-27T08:21:48.517Z,79.92
2023-02-27T08:24:14.830Z,79.23
2023-02-27T08:26:41.156Z,79.77
2023-02-27T08:29:07.832Z,79.55
2023-02-27T08:31:34.222Z,77.76
2023-02-27T08:34:09.950Z,78.89
2023-02-27T08:36:37.003Z,78.27
2023-02-27T08:39:03.383Z,80.25
2023-02-27T08:41:29.690Z,78.88
2023-02-27T08:43:56.138Z,79.00
2023-02-27T08:46:22.454Z,79.90
2023-02-27T08:48:48.784Z,82.02
2023-02-27T08:51:15.118Z,81.03
2023-02-27T08:53:41.450Z,79.74
2023-02-27T08:56:07.796Z,79.28
2023-02-27T08:58:36.009Z,80.33
2023-02-27T09:01:02.420Z,80.55
2023-02-27T09:03:29.039Z,79.57
2023-02-27T09:05:55.470Z,78.57
2023-02-27T09:08:21.799Z,77.01
2023-02-27T09:10:48.121Z,78.68
2023-02-27T09:13:14.430Z,80.07
2023-02-27T09:15:40.767Z,78.62
2023-02-27T09:18:07.116Z,75.93
2023-02-27T09:20:33.531Z,76.62
2023-02-27T09:22:59.936Z,78.01
2023-02-27T09:25:26.358Z,79.20
2023-02-27T09:27:52.698Z,80.47
2023-02-27T09:30:19.018Z,80.93
2023-02-27T09:32:45.389Z,80.67
2023-02-27T09:35:11.729Z,77.50
2023-02-27T09:37:38.055Z,77.81
2023-02-27T09:40:07.044Z,78.15
2023-02-27T09:42:33.367Z,79.69
2023-02-27T09:44:59.682Z,77.23
2023-02-27T09:47:26.036Z,77.67
2023-02-27T09:49:52.372Z,76.70
2023-02-27T09:52:18.708Z,79.37
2023-02-27T09:54:45.075Z,78.81
2023-02-27T09:57:12.410Z,77.54
2023-02-27T09:59:38.748Z,76.47
2023-02-27T10:02:06.343Z,77.73
2023-02-27T10:04:32.757Z,78.22
2023-02-27T10:06:59.160Z,75.91
2023-02-27T10:09:25.604Z,76.52
2023-02-27T10:11:51.949Z,76.86
2023-02-27T10:14:18.993Z,76.85
2023-02-27T10:16:45.420Z,76.35
2023-02-27T10:19:11.726Z,75.66
2023-02-27T10:21:38.070Z,76.33
2023-02-27T10:24:06.751Z,76.60
2023-02-27T10:26:33.953Z,75.58
2023-02-27T10:29:00.379Z,77.02
2023-02-27T10:31:27.263Z,76.03
2023-02-27T10:33:53.837Z,76.13
2023-02-27T10:36:33.048Z,77.89
2023-02-27T10:39:00.226Z,77.01
2023-02-27T10:41:26.999Z,76.86
2023-02-27T10:43:53.498Z,75.82
2023-02-27T10:46:19.843Z,75.78
2023-02-27T10:48:46.271Z,77.03
2023-02-27T10:51:12.600Z,76.61
2023-02-27T10:53:38.910Z,76.08
2023-02-27T10:56:05.204Z,76.50
2023-02-27T10:58:34.650Z,75.93
2023-02-27T11:01:01.511Z,75.26
2023-02-27T11:03:29.226Z,75.40
2023-02-27T11:05:55.595Z,74.26
2023-02-27T11:08:21.928Z,73.37
2023-02-27T11:10:48.268Z,73.48
2023-02-27T11:13:14.559Z,71.99
2023-02-27T11:15:40.881Z,72.43
2023-02-27T11:18:07.184Z,73.26
2023-02-27T11:20:33.497Z,73.10
2023-02-27T11:22:59.850Z,73.73
2023-02-27T11:25:26.167Z,73.86
2023-02-27T11:27:52.571Z,74.85
2023-02-27T11:30:18.910Z,75.13
2023-02-27T11:32:45.264Z,75.55
2023-02-27T11:35:11.582Z,77.96
2023-02-27T11:37:39.588Z,77.98
2023-02-27T11:40:07.186Z,76.94
2023-02-27T11:42:33.630Z,75.18
2023-02-27T11:45:00.027Z,74.80
2023-02-27T11:47:26.734Z,73.02
2023-02-27T11:49:53.079Z,73.56
2023-02-27T11:52:19.409Z,76.62
2023-02-27T11:54:45.721Z,75.75
2023-02-27T11:57:13.071Z,73.59
2023-02-27T11:59:39.441Z,74.38
2023-02-27T12:02:05.885Z,73.76
2023-02-27T12:04:32.196Z,71.00
2023-02-27T12:06:58.537Z,68.03
2023-02-27T12:09:24.861Z,68.37
2023-02-27T12:11:51.164Z,67.79
2023-02-27T12:14:17.488Z,68.81
2023-02-27T12:16:43.863Z,67.26
2023-02-27T12:19:10.212Z,68.41
2023-02-27T12:21:36.512Z,68.81
2023-02-27T12:24:02.838Z,69.97
2023-02-27T12:26:29.516Z,71.14
2023-02-27T12:28:56.268Z,71.09
2023-02-27T12:31:22.603Z,69.37
2023-02-27T12:33:48.928Z,69.41
2023-02-27T12:36:15.411Z,67.43
2023-02-27T12:38:41.800Z,69.93
2023-02-27T12:41:08.270Z,70.04
2023-02-27T12:43:34.600Z,69.19
2023-02-27T12:46:00.986Z,69.05
2023-02-27T12:48:27.309Z,70.84
2023-02-27T12:50:54.097Z,65.34
2023-02-27T12:53:20.445Z,67.12
2023-02-27T12:55:46.755Z,67.82
2023-02-27T12:58:13.113Z,66.44
2023-02-27T13:00:39.516Z,63.17
2023-02-27T13:03:05.887Z,65.76
2023-02-27T13:05:32.523Z,65.26
2023-02-27T13:07:58.882Z,64.90
2023-02-27T13:10:25.339Z,63.06
2023-02-27T13:12:51.693Z,62.56
2023-02-27T13:15:18.036Z,63.11
2023-02-27T13:17:44.360Z,62.50
2023-02-27T13:20:10.784Z,63.60
2023-02-27T13:22:37.106Z,64.36
2023-02-27T13:25:03.502Z,63.46
2023-02-27T13:27:29.908Z,63.88
2023-02-27T13:29:56.726Z,64.58
2023-02-27T13:32:32.693Z,65.19
2023-02-27T13:35:07.838Z,62.09
2023-02-27T13:37:34.167Z,63.00
2023-02-27T13:40:01.593Z,61.72
2023-02-27T13:42:28.077Z,61.73
2023-02-27T13:44:54.453Z,60.40
2023-02-27T13:47:20.785Z,60.46
2023-02-27T13:49:47.147Z,61.76
2023-02-27T13:52:13.465Z,61.66
2023-02-27T13:54:39.791Z,60.77
2023-02-27T13:57:06.543Z,57.49
2023-02-27T13:59:32.955Z,58.10
2023-02-27T14:01:59.301Z,58.52
2023-02-27T14:04:26.316Z,57.94
2023-02-27T14:06:52.618Z,55.54
2023-02-27T14:09:18.954Z,55.22
2023-02-27T14:11:45.272Z,54.29
2023-02-27T14:14:11.675Z,54.63
2023-02-27T14:16:41.097Z,54.88
2023-02-27T14:19:08.008Z,54.31
2023-02-27T14:21:34.315Z,53.83
2023-02-27T14:24:00.726Z,53.98
2023-02-27T14:26:27.991Z,54.84
2023-02-27T14:28:55.896Z,54.22
2023-02-27T14:31:22.332Z,54.63
2023-02-27T14:33:48.712Z,56.93
2023-02-27T14:36:15.184Z,55.58
2023-02-27T14:38:41.514Z,55.19
2023-02-27T14:41:08.277Z,53.69
2023-02-27T14:43:34.639Z,55.12
2023-02-27T14:46:00.976Z,55.18
2023-02-27T14:48:27.339Z,55.02
2023-02-27T14:50:53.951Z,54.56
2023-02-27T14:53:20.373Z,55.29
2023-02-27T14:55:46.679Z,54.95
2023-02-27T14:58:13.146Z,54.11
2023-02-27T15:00:39.500Z,54.90
2023-02-27T15:03:05.945Z,55.65
2023-02-27T15:05:34.864Z,56.16
2023-02-27T15:08:01.397Z,56.46
2023-02-27T15:10:30.807Z,57.46
2023-02-27T15:12:57.115Z,58.56
2023-02-27T15:15:23.472Z,58.61
2023-02-27T15:17:49.809Z,57.37
2023-02-27T15:20:19.140Z,58.06
2023-02-27T15:22:45.445Z,60.07
2023-02-27T15:25:11.753Z,63.27
2023-02-27T15:27:38.118Z,64.06
2023-02-27T15:30:04.644Z,66.38
2023-02-27T15:32:31.023Z,68.06
2023-02-27T15:34:57.417Z,68.44
2023-02-27T15:37:23.792Z,69.23
2023-02-27T15:39:50.117Z,67.31
2023-02-27T15:42:16.424Z,67.31
2023-02-27T15:44:42.722Z,69.35
2023-02-27T15:47:09.714Z,70.16
2023-02-27T15:49:36.021Z,70.36
2023-02-27T15:52:02.386Z,72.24
2023-02-27T15:54:28.810Z,71.08
2023-02-27T15:56:55.132Z,71.18
2023-02-27T15:59:21.520Z,71.52
2023-02-27T16:01:47.856Z,70.23
2023-02-27T16:04:14.300Z,70.36
2023-02-27T16:06:40.717Z,71.21
2023-02-27T16:09:07.125Z,70.49
2023-02-27T16:11:33.460Z,71.48
2023-02-27T16:13:59.778Z,71.79
2023-02-27T16:16:26.815Z,72.72
2023-02-27T16:18:53.495Z,72.12
2023-02-27T16:21:19.884Z,72.05
2023-02-27T16:23:46.195Z,72.22
2023-02-27T16:26:12.528Z,72.09
2023-02-27T16:28:38.908Z,72.60
2023-02-27T16:31:05.234Z,73.04
2023-02-27T16:33:31.817Z,73.50
2023-02-27T16:35:58.156Z,73.19
2023-02-27T16:38:24.542Z,73.07
2023-02-27T16:40:52.248Z,73.76
2023-02-27T16:43:18.640Z,73.80
2023-02-27T16:45:44.993Z,73.48
2023-02-27T16:48:11.339Z,73.68
2023-02-27T16:50:37.650Z,73.95
2023-02-27T16:53:04.022Z,74.15
2023-02-27T16:55:32.498Z,73.38
2023-02-27T16:57:59.658Z,74.58
2023-02-27T17:00:26.088Z,75.46
2023-02-27T17:02:52.433Z,74.28
2023-02-27T17:05:18.801Z,75.08
2023-02-27T17:07:45.166Z,74.86
2023-02-27T17:10:11.465Z,74.55
2023-02-27T17:12:37.774Z,75.11
2023-02-27T17:15:04.076Z,74.08
2023-02-27T17:17:30.386Z,74.54
2023-02-27T17:19:57.221Z,75.26
2023-02-27T17:22:23.543Z,75.13
2023-02-27T17:24:49.862Z,76.04
2023-02-27T17:27:16.195Z,76.03
2023-02-27T17:29:42.502Z,75.58
2023-02-27T17:32:08.891Z,75.13
2023-02-27T17:34:35.946Z,76.06
2023-02-27T17:37:02.287Z,75.57
2023-02-27T17:39:28.605Z,74.10
2023-02-27T17:41:55.088Z,74.03
2023-02-27T17:44:21.593Z,74.00
2023-02-27T17:46:47.998Z,75.01
2023-02-27T17:49:14.380Z,74.70
2023-02-27T17:51:40.742Z,75.21
2023-02-27T17:54:07.200Z,75.42
2023-02-27T17:56:36.301Z,76.01
2023-02-27T17:59:03.000Z,76.50
2023-02-27T18:01:29.379Z,75.16
2023-02-27T18:03:55.850Z,76.14
2023-02-27T18:06:22.242Z,75.83
2023-02-27T18:08:48.654Z,75.24
2023-02-27T18:11:14.991Z,75.87
2023-02-27T18:13:41.365Z,76.60
2023-02-27T18:16:07.784Z,76.30
2023-02-27T18:18:34.127Z,76.77
2023-02-27T18:21:00.779Z,78.97
2023-02-27T18:23:27.108Z,80.92
2023-02-27T18:25:53.417Z,80.86
2023-02-27T18:28:19.734Z,79.87
2023-02-27T18:30:46.112Z,80.33
2023-02-27T18:33:12.568Z,79.90
2023-02-27T18:35:38.908Z,81.01
2023-02-27T18:38:06.009Z,80.54
2023-02-27T18:40:32.361Z,79.51
2023-02-27T18:42:58.716Z,80.04
2023-02-27T18:45:29.787Z,79.90
2023-02-27T18:47:56.159Z,80.22
2023-02-27T18:50:22.535Z,79.75
2023-02-27T18:52:48.895Z,78.61
2023-02-27T18:55:15.308Z,79.68
2023-02-27T18:57:41.630Z,79.82
2023-02-27T19:00:07.949Z,80.24
2023-02-27T19:02:37.330Z,80.56
2023-02-27T19:05:03.666Z,80.56
2023-02-27T19:07:30.012Z,79.43
2023-02-27T19:09:56.336Z,78.06
2023-02-27T19:12:22.637Z,78.53
2023-02-27T19:14:49.618Z,77.32
2023-02-27T19:17:15.938Z,76.12
2023-02-27T19:19:42.287Z,76.57
2023-02-27T19:22:08.674Z,76.44
2023-02-27T19:24:35.060Z,76.60
2023-02-27T19:27:01.373Z,77.38
2023-02-27T19:29:27.691Z,76.59
2023-02-27T19:31:54.177Z,77.03
2023-02-27T19:34:20.551Z,77.43
2023-02-27T19:36:46.994Z,78.26
2023-02-27T19:39:13.336Z,78.67
2023-02-27T19:41:39.731Z,78.22
2023-02-27T19:44:06.113Z,77.87
2023-02-27T19:46:32.962Z,77.73
2023-02-27T19:48:59.558Z,77.96
2023-02-27T19:51:26.473Z,78.43
2023-02-27T19:53:53.845Z,79.93
2023-02-27T19:56:20.184Z,80.02
2023-02-27T19:58:46.701Z,79.79
2023-02-27T20:01:13.072Z,79.64
2023-02-27T20:03:43.763Z,79.92
2023-02-27T20:06:10.794Z,81.01
2023-02-27T20:08:37.216Z,81.19
2023-02-27T20:11:05.407Z,81.81
2023-02-27T20:13:31.773Z,82.84
2023-02-27T20:15:58.098Z,83.09
2023-02-27T20:18:24.600Z,83.12
2023-02-27T20:20:50.902Z,82.59
2023-02-27T20:23:17.293Z,82.55
2023-02-27T20:25:43.668Z,82.26
2023-02-27T20:28:09.991Z,82.72
2023-02-27T20:30:39.568Z,82.83
2023-02-27T20:33:05.898Z,83.18
2023-02-27T20:35:32.250Z,83.13
2023-02-27T20:37:58.603Z,83.80
2023-02-27T20:40:28.735Z,83.58
2023-02-27T20:42:55.049Z,83.52
2023-02-27T20:45:22.198Z,83.09
2023-02-27T20:47:48.579Z,84.00
2023-02-27T20:50:14.924Z,83.13
2023-02-27T20:52:41.235Z,83.50
2023-02-27T20:55:07.532Z,82.40
2023-02-27T20:57:34.448Z,82.66
2023-02-27T21:00:00.792Z,82.58
2023-02-27T21:02:27.216Z,82.83
2023-02-27T21:04:54.226Z,82.85
2023-02-27T21:07:23.608Z,82.35
2023-02-27T21:09:50.062Z,82.89
2023-02-27T21:12:16.375Z,83.03
2023-02-27T21:14:46.678Z,82.60
2023-02-27T21:17:13.859Z,82.98
2023-02-27T21:19:40.286Z,82.20
2023-02-27T21:22:07.527Z,82.93
2023-02-27T21:24:33.972Z,84.03
2023-02-27T21:27:00.310Z,83.30
2023-02-27T21:29:26.674Z,83.37
2023-02-27T21:31:53.069Z,83.78
2023-02-27T21:34:19.432Z,84.47
2023-02-27T21:36:45.742Z,84.90
2023-02-27T21:39:12.061Z,84.17
2023-02-27T21:41:38.393Z,83.25
2023-02-27T21:44:04.700Z,82.67
2023-02-27T21:46:31.044Z,84.04
2023-02-27T21:48:57.411Z,84.00
2023-02-27T21:51:38.242Z,84.35
2023-02-27T21:54:05.482Z,84.15
2023-02-27T21:56:31.933Z,84.04
2023-02-27T21:58:58.461Z,84.62
2023-02-27T22:01:24.868Z,84.54
2023-02-27T22:03:51.195Z,84.77
2023-02-27T22:06:17.513Z,84.99
2023-02-27T22:08:43.873Z,86.02
2023-02-27T22:11:10.189Z,85.38
2023-02-27T22:13:36.625Z,85.31
2023-02-27T22:16:02.971Z,86.36
2023-02-27T22:18:29.387Z,85.81
2023-02-27T22:20:55.697Z,85.77
2023-02-27T22:23:22.214Z,85.94
2023-02-27T22:25:48.533Z,85.85
2023-02-27T22:28:14.937Z,86.34
2023-02-27T22:30:41.317Z,86.80
2023-02-27T22:33:07.843Z,87.48
2023-02-27T22:35:34.286Z,87.26
2023-02-27T22:38:00.706Z,87.26
2023-02-27T22:40:29.646Z,87.56
2023-02-27T22:42:56.718Z,87.92
2023-02-27T22:45:23.020Z,90.09
2023-02-27T22:47:49.366Z,89.62
2023-02-27T22:50:16.137Z,89.17
2023-02-27T22:52:42.487Z,89.17
2023-02-27T22:55:08.801Z,87.24
2023-02-27T22:57:35.110Z,88.00
2023-02-27T23:00:01.426Z,89.48
2023-02-27T23:02:33.377Z,87.40
2023-02-27T23:04:59.675Z,85.70
2023-02-27T23:07:25.967Z,86.06
2023-02-27T23:09:52.279Z,85.17
2023-02-27T23:12:18.594Z,87.14
2023-02-27T23:14:44.970Z,85.97
2023-02-27T23:17:11.307Z,85.90
2023-02-27T23:19:38.674Z,85.49
2023-02-27T23:22:05.312Z,86.40
2023-02-27T23:24:31.643Z,86.59
2023-02-27T23:26:58.141Z,86.64
2023-02-27T23:29:24.470Z,85.71
2023-02-27T23:31:51.035Z,85.54
2023-02-27T23:34:17.451Z,85.75
2023-02-27T23:36:43.783Z,84.78
2023-02-27T23:39:10.163Z,83.44
2023-02-27T23:41:36.477Z,83.92
2023-02-27T23:44:02.801Z,83.83
2023-02-27T23:46:30.752Z,82.66
2023-02-27T23:48:58.108Z,82.65
2023-02-27T23:51:24.413Z,81.86
2023-02-27T23:53:51.125Z,82.13
2023-02-27T23:56:17.476Z,81.50
2023-02-27T23:58:43.827Z,82.14
